Flight Track Log - Related Links

Times and Time Zones

All times are in EDT time to prevent confusion due to time zone crossing. See the N66SG flight status page for this flight to view local times or setup timezone preferences in your user account.

Time Position Orientation Groundspeed Altitude Reporting Facility
EDT Latitude Longitude Course Direction KTS MPH feet Rate Location/Type
Thu 11:10:00 PM 40.9616 -78.4508 276° West  Level FlightAware Approximate
Thu 11:11:00 PM 40.9746 -78.5799 279° West  Level FlightAware Approximate
Thu 11:12:00 PM 40.9893 -78.7087 278° West  Level FlightAware Approximate
Thu 11:13:00 PM 41.0023 -78.8380 278° West  Level FlightAware Approximate
Thu 11:13:46 PM 40.8194 -77.9039 276° West 464 534 4,300  Level New York Center
Thu 11:14:00 PM 41.0151 -78.9672 278° West  Level FlightAware Approximate
Thu 11:14:59 PM 40.8178 -78.0042 269° West 282 325 8,700  Level Cleveland Center
Thu 11:15:00 PM 41.0292 -79.0963 278° West  Level FlightAware Approximate
Thu 11:15:59 PM 40.8753 -78.0594 324° Northwest 228 262 12,300  Level Cleveland Center
Thu 11:16:00 PM 41.0509 -79.2234 280° West  Level FlightAware Approximate
Thu 11:16:59 PM 40.8922 -78.1686 282° West 269 310 15,900  Level Cleveland Center
Thu 11:17:00 PM 41.0681 -79.3519 280° West  Level FlightAware Approximate
Thu 11:17:59 PM 40.9197 -78.2831 288° West 304 350 18,900  Level Cleveland Center
Thu 11:18:00 PM 41.0833 -79.4806 270° West  Level FlightAware Approximate
Thu 11:18:59 PM 40.9447 -78.3922 287° West 315 362 22,400  Level Cleveland Center
Thu 11:19:00 PM 41.0871 -79.6109 276° West  Level FlightAware Approximate
Thu 11:19:59 PM 40.9761 -78.5203 288° West 333 383 23,100  Level Cleveland Center
Thu 11:20:59 PM 41.0078 -78.6625 286° West 374 430 25,500 2,800 Climbing Cleveland Center
Thu 11:21:59 PM 41.0369 -78.7856 287° West 398 458 28,700 3,200 Climbing Cleveland Center
Thu 11:22:59 PM 41.0750 -78.9497 287° West 398 458 31,900 1,650 Climbing Cleveland Center
Thu 11:23:59 PM 41.1061 -79.0922 286° West 398 458 32,000 50 Climbing Cleveland Center
Thu 11:24:59 PM 41.1392 -79.2514 285° West 422 486 32,000  Level Cleveland Center
Thu 11:25:59 PM 41.1764 -79.4106 287° West 442 509 32,000  Level Cleveland Center
Thu 11:26:59 PM 41.2133 -79.5728 287° West 453 521 32,000 -50 Level Cleveland Center
Thu 11:27:59 PM 41.2481 -79.7381 286° West 453 521 31,900 -350 Descending Cleveland Center
Thu 11:28:59 PM 41.2847 -79.9006 287° West 458 527 31,300 -700 Descending Cleveland Center
Thu 11:29:59 PM 41.3208 -80.0606 287° West 458 527 30,500 -650 Descending Cleveland Center
Thu 11:30:59 PM 41.3569 -80.2264 286° West 453 521 30,000 -250 Descending Cleveland Center
Thu 11:31:59 PM 41.3908 -80.3922 285° West 459 528 30,000  Level Cleveland Center
Thu 11:32:59 PM 41.4264 -80.5583 286° West 464 534 30,000  Level Cleveland Center
Thu 11:33:59 PM 41.4597 -80.7217 285° West 464 534 30,000  Level Cleveland Center
Thu 11:35:00 PM 41.4947 -80.8881 286° West 464 534 30,000  Level Cleveland Center
Thu 11:35:59 PM 41.5567 -81.0328 300° West 457 526 30,000  Level Cleveland Center
Thu 11:36:59 PM 41.6269 -81.1775 303° West 462 532 30,000  Level Cleveland Center
Thu 11:37:59 PM 41.6969 -81.3228 303° West 462 532 30,000 -450 Level Cleveland Center
Thu 11:38:59 PM 41.7647 -81.4683 302° West 462 532 29,100 -1,550 Descending Cleveland Center
Thu 11:39:59 PM 41.8364 -81.6144 303° West 462 532 26,900 -2,200 Descending Cleveland Center
Thu 11:40:59 PM 41.9058 -81.7606 303° West 462 532 24,700 -2,150 Descending Cleveland Center
Thu 11:41:59 PM 41.9731 -81.9097 301° West 462 532 22,600 -2,100 Descending Cleveland Center
Thu 11:42:59 PM 42.0403 -82.0508 303° West 462 532 20,500 -1,900 Descending Cleveland Center
Thu 11:43:59 PM 42.0969 -82.1753 302° West 452 520 18,800 -1,750 Descending Cleveland Center
Thu 11:44:59 PM 42.1594 -82.3086 302° West 441 507 17,000 -1,900 Descending Cleveland Center
Thu 11:45:59 PM 42.2219 -82.4450 302° West 435 501 15,000 -2,118 Descending Cleveland Center
Thu 11:46:24 PM 42.2522 -82.5103 302° West 415 478 14,000 -1,900 Descending Cleveland Center
Thu 11:46:59 PM 42.2803 -82.5731 301° West 425 489 13,100 -1,642 Descending Cleveland Center
Thu 11:47:59 PM 42.3386 -82.6983 302° West 410 472 11,400 -1,674 Descending Cleveland Center
Thu 11:48:25 PM 42.3706 -82.7697 301° West 387 445 10,700 -900 Descending Cleveland Center
Thu 11:48:59 PM 42.3925 -82.8183 301° West 397 457 10,500 -393 Descending Cleveland Center
Thu 11:49:26 PM 42.4228 -82.8783 304° West 321 369 10,300 -500 Descending Cleveland Center
Thu 11:49:59 PM 42.4406 -82.9242 298° West 363 418 10,000 -1,343 Descending Cleveland Center
Thu 11:50:33 PM 42.4686 -82.9842 302° West 299 344 8,800 -2,200 Descending Cleveland Center
Thu 11:50:59 PM 42.4864 -83.0272 299° West 308 354 7,800 -2,091 Descending Cleveland Center
Thu 11:51:39 PM 42.5161 -83.0903 303° West 281 323 6,500 -2,000 Descending Cleveland Center
Thu 11:51:59 PM 42.5261 -83.1161 298° West 291 335 5,800 -1,964 Descending Cleveland Center
Thu 11:52:34 PM 42.5542 -83.1678 306° West 276 318 4,700 -1,900 Descending Cleveland Center
Thu 11:52:59 PM 42.5700 -83.2025 302° West 280 322 3,900 -1,745 Descending Cleveland Center
Thu 11:53:29 PM 42.5983 -83.2431 314° West 267 307 3,100 -1,000 Descending Cleveland Center
Thu 11:53:59 PM 42.6183 -83.2750 310° West 275 316 2,900 -545 Descending Cleveland Center
Thu 11:54:35 PM 42.6511 -83.2989 332° Northwest 197 227 2,500 -680 Descending Cleveland Center
Thu 11:55:36 PM 42.6667 -83.3533 291° West 158 182 1,800 -689 Descending Cleveland Center
Thu 11:57:00 PM 42.6500 -83.4167 294° West  Level FlightAware Approximate
Fri 12:04:00 AM 42.6656 -83.4205 294° West  Level Estimated
Fri 12:05:00 AM 42.6656 -83.4205 294° West  Level Estimated

Login

Don't have an account? Register now (free) for customized features, flight alerts, and more!